Terminal Aerodrome Forecast
Issued by NWS Brownsville, TX

Home | Current Version | Previous Version | Text Only | Print | Product List | Glossary On
Versions: 1 2 3 4 5 6 7 8 9 10 11 12 13
000
FTUS44 KBRO 310500
TAFMFE
TAF
KMFE 310536Z 3106/0106 13004KT P6SM SKC
     FM310900 00000KT 4SM BR BKN030
     FM311200 03005KT 6SM BR BKN030
     FM311500 02006KT P6SM BKN025
     FM311800 03010KT P6SM VCSH BKN025=

USA.gov is the U.S. government's official web portal to all federal, state and local government web resources and services.